Terminal Aerodrome Forecast
Issued by NWS Cleveland, OH

Home | Current Version | Previous Version | Graphics & Text | Print | Product List | Glossary On
Versions: 1 2 3 4 5 6 7 8 9 10 11 12 13 14 15 16 17 18 19 20 21 22 23
000
FTUS41 KCLE 191100
TAFMFD
TAF
KMFD 191120Z 1912/2012 31004KT P6SM OVC035
     FM191300 30005KT P6SM SCT035
     FM191400 29005KT P6SM SCT250
     FM191800 25008KT P6SM BKN250
     FM200000 20005KT P6SM BKN250
     FM200600 20009KT P6SM SCT100 OVC250=

USA.gov is the U.S. government's official web portal to all federal, state and local government web resources and services.